sensor_id;sensor_type;location;lat;lon;timestamp;temperature;humidity
16968;DHT22;64862;54.398;10.126;2024-02-23T00:01:27;10.70;99.90
16968;DHT22;64862;54.398;10.126;2024-02-23T00:11:30;10.50;99.90
16968;DHT22;64862;54.398;10.126;2024-02-23T00:21:35;10.20;99.90
16968;DHT22;64862;54.398;10.126;2024-02-23T00:31:38;10.00;99.90
16968;DHT22;64862;54.398;10.126;2024-02-23T00:41:43;9.80;99.90
16968;DHT22;64862;54.398;10.126;2024-02-23T00:51:46;9.70;99.90
16968;DHT22;64862;54.398;10.126;2024-02-23T01:01:50;9.20;99.90
16968;DHT22;64862;54.398;10.126;2024-02-23T01:11:53;8.90;99.90
16968;DHT22;64862;54.398;10.126;2024-02-23T01:21:57;8.50;99.90
16968;DHT22;64862;54.398;10.126;2024-02-23T01:32:03;8.50;99.90
16968;DHT22;64862;54.398;10.126;2024-02-23T01:42:08;8.10;99.90
16968;DHT22;64862;54.398;10.126;2024-02-23T01:52:10;7.80;99.90
16968;DHT22;64862;54.398;10.126;2024-02-23T02:02:15;7.50;99.90
16968;DHT22;64862;54.398;10.126;2024-02-23T02:12:26;7.30;99.90
16968;DHT22;64862;54.398;10.126;2024-02-23T02:22:31;7.20;99.90
16968;DHT22;64862;54.398;10.126;2024-02-23T02:32:35;7.00;99.90
16968;DHT22;64862;54.398;10.126;2024-02-23T02:42:39;6.90;99.90
16968;DHT22;64862;54.398;10.126;2024-02-23T02:52:42;6.70;99.90
16968;DHT22;64862;54.398;10.126;2024-02-23T03:02:46;6.70;99.90
16968;DHT22;64862;54.398;10.126;2024-02-23T03:12:48;6.50;99.90
16968;DHT22;64862;54.398;10.126;2024-02-23T03:22:51;6.40;99.90
16968;DHT22;64862;54.398;10.126;2024-02-23T03:32:53;6.50;99.90
16968;DHT22;64862;54.398;10.126;2024-02-23T03:42:57;6.60;99.90
16968;DHT22;64862;54.398;10.126;2024-02-23T03:52:59;6.90;99.90
16968;DHT22;64862;54.398;10.126;2024-02-23T04:03:02;6.80;99.90
16968;DHT22;64862;54.398;10.126;2024-02-23T04:13:04;6.60;99.90
16968;DHT22;64862;54.398;10.126;2024-02-23T04:23:11;6.80;99.90
16968;DHT22;64862;54.398;10.126;2024-02-23T04:33:13;6.70;99.90
16968;DHT22;64862;54.398;10.126;2024-02-23T04:43:17;6.80;99.90
16968;DHT22;64862;54.398;10.126;2024-02-23T04:53:19;6.80;99.90
16968;DHT22;64862;54.398;10.126;2024-02-23T05:03:22;6.80;99.90
16968;DHT22;64862;54.398;10.126;2024-02-23T05:13:25;6.90;99.90
16968;DHT22;64862;54.398;10.126;2024-02-23T05:23:28;6.80;99.90
16968;DHT22;64862;54.398;10.126;2024-02-23T05:33:30;6.90;99.90
16968;DHT22;64862;54.398;10.126;2024-02-23T05:43:34;6.90;99.90
16968;DHT22;64862;54.398;10.126;2024-02-23T05:53:36;6.80;99.90
16968;DHT22;64862;54.398;10.126;2024-02-23T06:03:40;6.90;99.90
16968;DHT22;64862;54.398;10.126;2024-02-23T06:13:42;6.80;99.90
16968;DHT22;64862;54.398;10.126;2024-02-23T06:23:45;7.00;99.90
16968;DHT22;64862;54.398;10.126;2024-02-23T06:33:47;7.00;99.90
16968;DHT22;64862;54.398;10.126;2024-02-23T06:43:54;6.70;99.90
16968;DHT22;64862;54.398;10.126;2024-02-23T06:53:56;6.50;99.90
16968;DHT22;64862;54.398;10.126;2024-02-23T07:04:08;6.10;99.90
16968;DHT22;64862;54.398;10.126;2024-02-23T07:14:26;6.40;99.90
16968;DHT22;64862;54.398;10.126;2024-02-23T07:24:30;6.60;99.90
16968;DHT22;64862;54.398;10.126;2024-02-23T07:34:32;6.10;99.90
16968;DHT22;64862;54.398;10.126;2024-02-23T07:44:36;6.60;99.90
16968;DHT22;64862;54.398;10.126;2024-02-23T07:54:39;6.70;99.90
16968;DHT22;64862;54.398;10.126;2024-02-23T08:04:42;6.50;99.90
16968;DHT22;64862;54.398;10.126;2024-02-23T08:14:45;6.60;99.90
16968;DHT22;64862;54.398;10.126;2024-02-23T08:24:51;6.60;99.90
16968;DHT22;64862;54.398;10.126;2024-02-23T08:34:53;7.00;99.90
16968;DHT22;64862;54.398;10.126;2024-02-23T08:45:01;7.10;99.90
16968;DHT22;64862;54.398;10.126;2024-02-23T08:55:03;7.20;99.90
16968;DHT22;64862;54.398;10.126;2024-02-23T09:05:08;7.20;99.90
16968;DHT22;64862;54.398;10.126;2024-02-23T09:15:10;7.30;99.90
16968;DHT22;64862;54.398;10.126;2024-02-23T09:25:14;7.40;99.90
16968;DHT22;64862;54.398;10.126;2024-02-23T09:35:16;7.60;99.90
16968;DHT22;64862;54.398;10.126;2024-02-23T09:45:20;7.50;99.90
16968;DHT22;64862;54.398;10.126;2024-02-23T09:55:22;7.80;99.90
16968;DHT22;64862;54.398;10.126;2024-02-23T10:05:30;7.80;99.90
16968;DHT22;64862;54.398;10.126;2024-02-23T10:15:32;7.70;99.90
16968;DHT22;64862;54.398;10.126;2024-02-23T10:25:36;7.90;99.90
16968;DHT22;64862;54.398;10.126;2024-02-23T10:35:41;8.00;99.90
16968;DHT22;64862;54.398;10.126;2024-02-23T10:45:47;8.20;99.90
16968;DHT22;64862;54.398;10.126;2024-02-23T10:55:52;8.20;99.90
16968;DHT22;64862;54.398;10.126;2024-02-23T11:06:00;8.30;99.90
16968;DHT22;64862;54.398;10.126;2024-02-23T11:16:02;8.50;99.90
16968;DHT22;64862;54.398;10.126;2024-02-23T11:26:06;8.40;99.90
16968;DHT22;64862;54.398;10.126;2024-02-23T11:36:09;8.50;99.90
16968;DHT22;64862;54.398;10.126;2024-02-23T11:46:14;8.50;99.90
16968;DHT22;64862;54.398;10.126;2024-02-23T11:56:17;8.50;99.90
16968;DHT22;64862;54.398;10.126;2024-02-23T12:06:21;8.60;99.90
16968;DHT22;64862;54.398;10.126;2024-02-23T12:16:25;8.60;99.90
16968;DHT22;64862;54.398;10.126;2024-02-23T12:26:29;8.80;99.90
16968;DHT22;64862;54.398;10.126;2024-02-23T12:36:31;8.90;99.90
16968;DHT22;64862;54.398;10.126;2024-02-23T12:46:37;8.90;99.90
16968;DHT22;64862;54.398;10.126;2024-02-23T12:56:39;9.00;99.90
16968;DHT22;64862;54.398;10.126;2024-02-23T13:06:43;9.00;99.90
16968;DHT22;64862;54.398;10.126;2024-02-23T13:16:45;8.90;99.90
16968;DHT22;64862;54.398;10.126;2024-02-23T13:26:49;8.80;99.90
16968;DHT22;64862;54.398;10.126;2024-02-23T13:36:51;8.80;99.90
16968;DHT22;64862;54.398;10.126;2024-02-23T13:46:54;8.90;99.90
16968;DHT22;64862;54.398;10.126;2024-02-23T13:56:57;8.90;99.90
16968;DHT22;64862;54.398;10.126;2024-02-23T14:07:01;8.90;99.90
16968;DHT22;64862;54.398;10.126;2024-02-23T14:17:04;8.90;99.90
16968;DHT22;64862;54.398;10.126;2024-02-23T14:27:08;8.90;99.90
16968;DHT22;64862;54.398;10.126;2024-02-23T14:37:10;8.90;99.90
16968;DHT22;64862;54.398;10.126;2024-02-23T14:47:13;9.00;99.90
16968;DHT22;64862;54.398;10.126;2024-02-23T14:57:16;8.80;99.90
16968;DHT22;64862;54.398;10.126;2024-02-23T15:07:19;8.70;99.90
16968;DHT22;64862;54.398;10.126;2024-02-23T15:17:22;8.80;99.90
16968;DHT22;64862;54.398;10.126;2024-02-23T15:27:25;8.60;99.90
16968;DHT22;64862;54.398;10.126;2024-02-23T15:37:27;8.70;99.90
16968;DHT22;64862;54.398;10.126;2024-02-23T15:47:31;8.80;99.90
16968;DHT22;64862;54.398;10.126;2024-02-23T15:57:34;8.70;99.90
16968;DHT22;64862;54.398;10.126;2024-02-23T16:07:37;8.70;99.90
16968;DHT22;64862;54.398;10.126;2024-02-23T16:17:39;8.80;99.90
16968;DHT22;64862;54.398;10.126;2024-02-23T16:27:43;8.70;99.90
16968;DHT22;64862;54.398;10.126;2024-02-23T16:37:46;8.70;99.90
16968;DHT22;64862;54.398;10.126;2024-02-23T16:47:50;8.60;99.90
16968;DHT22;64862;54.398;10.126;2024-02-23T16:57:52;8.60;99.90
16968;DHT22;64862;54.398;10.126;2024-02-23T17:07:56;8.70;99.90
16968;DHT22;64862;54.398;10.126;2024-02-23T17:17:59;8.60;99.90
16968;DHT22;64862;54.398;10.126;2024-02-23T17:28:03;8.40;99.90
16968;DHT22;64862;54.398;10.126;2024-02-23T17:38:05;8.20;99.90
16968;DHT22;64862;54.398;10.126;2024-02-23T17:48:09;8.00;99.90
16968;DHT22;64862;54.398;10.126;2024-02-23T17:58:12;7.90;99.90
16968;DHT22;64862;54.398;10.126;2024-02-23T18:08:20;7.90;99.90
16968;DHT22;64862;54.398;10.126;2024-02-23T18:18:22;7.80;99.90
16968;DHT22;64862;54.398;10.126;2024-02-23T18:28:26;7.70;99.90
16968;DHT22;64862;54.398;10.126;2024-02-23T18:38:33;7.70;99.90
16968;DHT22;64862;54.398;10.126;2024-02-23T18:48:36;7.70;99.90
16968;DHT22;64862;54.398;10.126;2024-02-23T18:58:39;7.60;99.90
16968;DHT22;64862;54.398;10.126;2024-02-23T19:08:45;7.60;99.90
16968;DHT22;64862;54.398;10.126;2024-02-23T19:18:47;7.50;99.90
16968;DHT22;64862;54.398;10.126;2024-02-23T19:28:50;7.40;99.90
16968;DHT22;64862;54.398;10.126;2024-02-23T19:38:53;7.40;99.90
16968;DHT22;64862;54.398;10.126;2024-02-23T19:48:57;7.40;99.90
16968;DHT22;64862;54.398;10.126;2024-02-23T19:59:00;7.40;99.90
16968;DHT22;64862;54.398;10.126;2024-02-23T20:09:04;7.30;99.90
16968;DHT22;64862;54.398;10.126;2024-02-23T20:19:07;7.30;99.90
16968;DHT22;64862;54.398;10.126;2024-02-23T20:29:11;7.30;99.90
16968;DHT22;64862;54.398;10.126;2024-02-23T20:39:13;7.30;99.90
16968;DHT22;64862;54.398;10.126;2024-02-23T20:49:17;7.20;99.90
16968;DHT22;64862;54.398;10.126;2024-02-23T20:59:19;7.10;99.90
16968;DHT22;64862;54.398;10.126;2024-02-23T21:09:23;7.00;99.90
16968;DHT22;64862;54.398;10.126;2024-02-23T21:19:29;6.90;99.90
16968;DHT22;64862;54.398;10.126;2024-02-23T21:29:33;7.00;99.90
16968;DHT22;64862;54.398;10.126;2024-02-23T21:39:36;7.00;99.90
16968;DHT22;64862;54.398;10.126;2024-02-23T21:49:40;7.00;99.90
16968;DHT22;64862;54.398;10.126;2024-02-23T21:59:44;6.90;99.90
16968;DHT22;64862;54.398;10.126;2024-02-23T22:09:49;7.00;99.90
16968;DHT22;64862;54.398;10.126;2024-02-23T22:19:57;7.00;99.90
16968;DHT22;64862;54.398;10.126;2024-02-23T22:30:03;7.00;99.90
16968;DHT22;64862;54.398;10.126;2024-02-23T22:40:07;7.20;99.90
16968;DHT22;64862;54.398;10.126;2024-02-23T22:50:15;7.20;99.90
16968;DHT22;64862;54.398;10.126;2024-02-23T23:00:18;7.10;99.90
16968;DHT22;64862;54.398;10.126;2024-02-23T23:10:22;7.20;99.90
16968;DHT22;64862;54.398;10.126;2024-02-23T23:20:27;7.10;99.90
16968;DHT22;64862;54.398;10.126;2024-02-23T23:30:30;6.90;99.90
16968;DHT22;64862;54.398;10.126;2024-02-23T23:40:33;6.90;99.90
16968;DHT22;64862;54.398;10.126;2024-02-23T23:50:38;6.90;99.90
